Detalhes do Voo

Voltar

 DETALHES DO VÔO

Piloto: GLD769 Ricardo D. Aeronave: FLIGHTFACTOR A320 ULTIMATE - MATADAVIA TEXTURA GOLD - AIRBUS A320 - FLIGHTFACTOR (X-PLANE 11) 5 ANOS Distância: 368NM
Origem: SBFL Destino: SBMG Duração: 1.03
Validação: Validado Tipo: Regular Matrícula: PR-GQJ
ZFW: 55119 Block Fuel/Init FOB 2,884/0 Combustível em Voo 2,443
Passageiros: 174 Carga: 15159 Alternativo: SBCA
Hora da Decolagem: Velocidade de Cruzeiro: 444 Nível de Voo: FL380
Regra Visual: IFR ICAO da Aeronave: A320 Unidade de Peso: Kg
Data: 02/01/2020 Observação: Rede: VATSIM
Acidentou?: Não Comentários do Validador: Pontuação do Voo 115.117

 ROTA

ROTA PUNOD2A CTB LON
REMARKS OPR/GOLD VIRTUAL AIRLINES PER/C FROM SBPA RMK/PIC GLD769 /WWW.GOLDVIRTUAL.COM.BR

 PENALIDADES DO VOO

Para entender como cada item é pontuado, consulte as regras de avaliação.

Nenhuma penalidade registrada para este voo.

 ANÁLISE DO POUSO

Vento durante o pouso: 298º/7 kt Proa durante o pouso: 168
V/S do Pouso: -494.43 ft/min IAS do Pouso: 131.55 kt
Força G no pouso: 2.1 G Bank no pouso: 0
Pitch no Pouso 5.8 Flaps no Pouso 0
Nav Lights ON Landing Lights ON
Beacon Lights ON Strobe Lights ON

 MAPA DO VOO

 PERFIL VERTICAL DO VOO

 EVENTOS PRINCIPAIS DO VOO

DATAEVENTOIASALTITUDE
2020-01-02 17:57:30 SIM ACARS version 1.4.0321
2020-01-02 17:57:30 BOARDING321
2020-01-02 18:34:47 STARTING ENGINE 2 221
2020-01-02 18:35:05 STARTING ENGINE 1 321
2020-01-02 18:39:40 FLAPS EXTENSION 25 % 021
2020-01-02 18:39:43 FLAPS EXTENSION 50 % 021
2020-01-02 18:50:55 TAXI TO THE RWY 224
2020-01-02 18:52:43 ROLLING FOR TAKE OFF4125
2020-01-02 18:53:12 TAKE OFF18825
2020-01-02 18:53:12 LIGHTS OFF BELOW 10000 ft18825
2020-01-02 18:53:15 FLAPS EXTENSION 25 % 19767
2020-01-02 18:53:19 GEAR UP203236
2020-01-02 18:53:42 FLAPS EXTENSION 0 % 2231620
2020-01-02 18:55:22 CRUISE2395010
2020-01-02 18:57:12 CLIMBING2515678
2020-01-02 19:00:12 CRUISE27712897
2020-01-02 19:04:12 CLIMBING27813217
2020-01-02 19:22:12 CRUISE24737977
2020-01-02 19:30:02 DESCEND25237165
2020-01-02 19:46:20 FLAPS EXTENSION 25 % 2329077
2020-01-02 19:46:36 FLAPS EXTENSION 0 % 2338725
2020-01-02 19:47:42 FLAPS EXTENSION 25 % 2327349
2020-01-02 19:49:57 FLAPS EXTENSION 50 % 2015186
2020-01-02 19:50:11 GEAR DOWN1915147
2020-01-02 19:50:31 FLAPS EXTENSION 75 % 1704952
2020-01-02 19:51:18 FLAPS EXTENSION 100 % 1394454
2020-01-02 19:53:02 CRUISE1343736
2020-01-02 19:54:52 DESCEND1343313
2020-01-02 19:56:53 LANDING1321799
2020-01-02 19:57:13 TAXI TO THE GATE201798
2020-01-02 19:57:43 FLAPS EXTENSION 75 % 121798
2020-01-02 19:57:44 FLAPS EXTENSION 50 % 131798
2020-01-02 19:57:47 FLAPS EXTENSION 25 % 151798
2020-01-02 19:57:49 FLAPS EXTENSION 0 % 171798
2020-01-02 19:57:51 TAXI SPEED ABOVE 25 KTS191798
2020-01-02 20:00:08 STOPPING ENGINE 2 01798
2020-01-02 20:00:10 STOPPING ENGINE 1 01798

 DADOS DO ACARS

DATA IAS GS ALTITUDE COMBUSTÍVEL USADO OAT FASE DO VOO
2020-01-02 17:58:30 3 0 20 1 25 BOARDING
2020-01-02 17:59:30 3 0 20 1 25 BOARDING
2020-01-02 18:00:30 3 0 20 1 25 BOARDING
2020-01-02 18:01:30 3 0 20 1 25 BOARDING
2020-01-02 18:02:30 3 0 20 1 25 BOARDING
2020-01-02 18:03:30 3 0 20 1 25 BOARDING
2020-01-02 18:04:30 3 0 20 1 25 BOARDING
2020-01-02 18:05:30 3 0 20 1 25 BOARDING
2020-01-02 18:06:30 3 0 20 1 25 BOARDING
2020-01-02 18:07:30 3 0 20 1 25 BOARDING
2020-01-02 18:08:30 3 0 20 1 25 BOARDING
2020-01-02 18:09:30 3 0 20 1 25 BOARDING
2020-01-02 18:10:30 3 0 20 1 25 BOARDING
2020-01-02 18:11:30 3 0 20 1 25 BOARDING
2020-01-02 18:12:30 3 0 20 1 25 BOARDING
2020-01-02 18:13:30 3 0 20 1 25 BOARDING
2020-01-02 18:14:30 3 0 20 1 25 BOARDING
2020-01-02 18:15:30 3 0 20 1 25 BOARDING
2020-01-02 18:16:30 4 0 20 1 25 BOARDING
2020-01-02 18:17:30 4 0 20 1 25 BOARDING
2020-01-02 18:18:30 4 0 20 1 25 BOARDING
2020-01-02 18:19:30 4 0 20 3 25 BOARDING
2020-01-02 18:20:30 4 0 20 6 25 BOARDING
2020-01-02 18:21:30 4 0 20 10 25 BOARDING
2020-01-02 18:22:30 4 0 20 14 25 BOARDING
2020-01-02 18:23:30 4 0 20 19 14 BOARDING
2020-01-02 18:24:30 4 0 20 24 25 BOARDING
2020-01-02 18:25:30 4 0 20 27 25 BOARDING
2020-01-02 18:26:30 4 0 20 32 25 BOARDING
2020-01-02 18:27:30 4 0 20 32 25 BOARDING
2020-01-02 18:28:30 4 0 20 38 25 BOARDING
2020-01-02 18:29:30 4 0 20 44 25 BOARDING
2020-01-02 18:30:30 4 0 20 49 14 BOARDING
2020-01-02 18:31:30 4 0 20 55 25 BOARDING
2020-01-02 18:32:30 4 0 20 61 25 BOARDING
2020-01-02 18:33:30 4 0 20 66 25 BOARDING
2020-01-02 18:34:30 2 2 20 69 25 BOARDING
2020-01-02 18:35:30 0 0 21 85 25 BOARDING
2020-01-02 18:36:30 0 0 21 100 25 BOARDING
2020-01-02 18:37:30 0 0 21 114 25 BOARDING
2020-01-02 18:38:30 0 0 21 117 25 BOARDING
2020-01-02 18:39:30 0 0 21 127 25 BOARDING
2020-01-02 18:40:30 0 0 21 138 25 BOARDING
2020-01-02 18:41:30 0 4 20 149 25 BOARDING
2020-01-02 18:42:30 4 7 22 161 25 BOARDING
2020-01-02 18:43:30 5 8 23 171 25 BOARDING
2020-01-02 18:44:30 1 8 24 181 25 BOARDING
2020-01-02 18:45:30 0 0 24 192 25 BOARDING
2020-01-02 18:46:30 0 0 24 204 25 BOARDING
2020-01-02 18:47:30 0 0 24 215 25 BOARDING
2020-01-02 18:48:30 0 0 24 226 25 BOARDING
2020-01-02 18:49:30 0 0 24 233 25 BOARDING
2020-01-02 18:50:30 0 0 24 241 25 BOARDING
2020-01-02 18:51:30 12 12 24 260 25 TAXI TO THE RWY
2020-01-02 18:52:30 2 0 24 275 25 TAXI TO THE RWY
2020-01-02 18:53:30 218 222 738 405 24 CLIMBING
2020-01-02 18:54:30 241 276 4466 524 16 CLIMBING
2020-01-02 18:55:30 240 290 5011 573 15 CRUISE
2020-01-02 18:56:30 240 289 5014 611 15 CRUISE
2020-01-02 18:57:30 254 305 6682 688 11 CLIMBING
2020-01-02 18:58:30 255 311 10489 791 3 CLIMBING
2020-01-02 18:59:30 275 336 12763 877 -2 CLIMBING
2020-01-02 19:00:30 277 340 12900 922 -2 CRUISE
2020-01-02 19:01:30 277 345 12900 965 -2 CRUISE
2020-01-02 19:02:30 277 345 12901 1007 -2 CRUISE
2020-01-02 19:03:30 277 345 12882 1049 -1 CRUISE
2020-01-02 19:04:30 278 352 13830 1108 -3 CLIMBING
2020-01-02 19:05:30 279 366 16616 1196 -10 CLIMBING
2020-01-02 19:06:30 279 380 19084 1277 -15 CLIMBING
2020-01-02 19:07:30 279 392 21326 1353 -21 CLIMBING
2020-01-02 19:08:30 279 399 23353 1425 -26 CLIMBING
2020-01-02 19:09:30 278 405 25187 1494 -31 CLIMBING
2020-01-02 19:10:30 279 414 26850 1558 -34 CLIMBING
2020-01-02 19:11:30 279 423 28349 1619 -38 CLIMBING
2020-01-02 19:12:30 278 442 29665 1679 -41 CLIMBING
2020-01-02 19:13:30 278 450 30728 1729 -43 CLIMBING
2020-01-02 19:14:30 278 449 31364 1761 -45 CLIMBING
2020-01-02 19:15:30 278 440 32337 1815 -47 CLIMBING
2020-01-02 19:16:30 275 443 33344 1866 -50 CLIMBING
2020-01-02 19:17:30 268 442 34459 1916 -52 CLIMBING
2020-01-02 19:18:30 262 448 35433 1963 -54 CLIMBING
2020-01-02 19:19:30 256 448 36345 2009 -56 CLIMBING
2020-01-02 19:20:30 252 448 37106 2053 -56 CLIMBING
2020-01-02 19:21:30 248 449 37782 2095 -56 CLIMBING
2020-01-02 19:22:30 247 450 37979 2131 -56 CRUISE
2020-01-02 19:23:30 247 451 37982 2165 -56 CRUISE
2020-01-02 19:24:30 247 452 37984 2199 -56 CRUISE
2020-01-02 19:25:30 247 453 37982 2224 -56 CRUISE
2020-01-02 19:26:30 246 454 37978 2257 -56 CRUISE
2020-01-02 19:27:30 246 455 37963 2286 -56 CRUISE
2020-01-02 19:28:30 246 456 37913 2320 -56 CRUISE
2020-01-02 19:29:30 247 458 37905 2353 -56 CRUISE
2020-01-02 19:30:30 258 459 36023 2365 -55 DESCEND
2020-01-02 19:31:30 259 450 34008 2371 -50 DESCEND
2020-01-02 19:32:30 263 441 32006 2378 -45 DESCEND
2020-01-02 19:33:30 266 431 29995 2384 -39 DESCEND
2020-01-02 19:34:30 269 420 27984 2391 -33 DESCEND
2020-01-02 19:35:30 272 409 26049 2399 -28 DESCEND
2020-01-02 19:36:30 273 403 25164 2402 -26 DESCEND
2020-01-02 19:37:30 273 389 23238 2411 -20 DESCEND
2020-01-02 19:38:30 271 376 21332 2419 -15 DESCEND
2020-01-02 19:39:30 269 363 19480 2428 -11 DESCEND
2020-01-02 19:40:30 269 352 17641 2437 -9 DESCEND
2020-01-02 19:41:30 266 339 15958 2446 -5 DESCEND
2020-01-02 19:42:30 260 317 14258 2456 0 DESCEND
2020-01-02 19:43:30 246 290 12724 2466 3 DESCEND
2020-01-02 19:44:30 244 281 11285 2477 6 DESCEND
2020-01-02 19:45:30 237 269 10023 2488 9 DESCEND
2020-01-02 19:46:30 232 261 8848 2500 11 DESCEND
2020-01-02 19:47:30 232 257 7595 2512 14 DESCEND
2020-01-02 19:48:30 231 252 6391 2524 17 DESCEND
2020-01-02 19:49:30 213 227 5380 2536 19 DESCEND
2020-01-02 19:50:30 170 179 4966 2548 20 DESCEND
2020-01-02 19:51:30 137 142 4376 2570 21 DESCEND
2020-01-02 19:52:30 133 137 3761 2610 22 DESCEND
2020-01-02 19:53:30 134 139 3732 2668 22 CRUISE
2020-01-02 19:54:30 135 139 3559 2721 24 CRUISE
2020-01-02 19:55:30 134 139 2938 2762 26 DESCEND
2020-01-02 19:56:30 134 137 2060 2795 29 DESCEND
2020-01-02 19:57:30 3 8 1797 2838 30 TAXI TO THE GATE
2020-01-02 19:58:30 0 5 1797 2857 30 TAXI TO THE GATE
2020-01-02 19:59:30 0 0 1797 2872 30 TAXI TO THE GATE
2020-01-02 20:00:30 0 0 1797 2879 30 TAXI TO THE GATE
2020-01-02 20:01:30 0 0 1797 2883 24 TAXI TO THE GATE